YNTN

Details ICAO YNTN (NTN)
Name Normanton
Region Australia
Timezone Australia/Brisbane (UTC+10.0)
Plans Departing 133
Arriving 119
Stats Elevation 36 ft / 11 m (AMSL)
Location -17.687100° 141.072000°
Runways 1
Magnetic Variation 5.543° E
Sunrise 2020-03-29 20:42:40 UTC / 2020-03-30 06:42:40 Local
Sunset 2020-03-30 08:40:03 UTC / 2020-03-30 18:40:03 Local
Advertisement - Login to hide

Runways

ID Width Length Bearing (true/mag) Surface Threshold Overrun Markings Lighting
14 98 ft / 30 m 5,476 ft / 1,669 m 146.83° / 141.29° ASPHALT 0 ft / 0 m 0 ft / 0 m VISUAL EDGE THRESHOLD
32 98 ft / 30 m 5,476 ft / 1,669 m 326.83° / 321.29° ASPHALT 0 ft / 0 m 0 ft / 0 m VISUAL EDGE THRESHOLD

Map

Weather


0- 5 10 15 20 25 30 35+ Temperature / °C

Clouds and Precipitation
Forecast for 2020-03-30 00:00 UTC. Updated 6 minutes ago

Ground ~20,000 ft ~40,000 ft Winds

METAR

YNTN 292100Z AUTO 00000KT 9999 // NCD 25/21 Q1011

TAF

Not found

Frequencies

Unicom 126.70 MHz CTAF
Warning: Do not use this data for real-world aviation or navigation. No guarantee of current accuracy is given.